Estación Meteorológica Peña el Pijo (Robertgarden) [ 02/03/23 04:24:54 CET ]

Fecha Hora Presion(HPa) Temp (°C) Humedad % Rocio (°C) Viento ( m/s) Direccion Lluvia 1Hora(mm) Lluvia 24H(mm) LLuvia Total(mm)
2012-Jan-04 01:01:17 1021.800 1.4 65 -4.5         151.25
2012-Jan-04 02:01:50 1021.600 0.8 67 -4.7         151.25
2012-Jan-04 03:04:11 1021.600 0.5 66 -5.2         151.25
2012-Jan-04 04:01:17 1021.700 0.4 64 -5.6         151.25
2012-Jan-04 05:01:16 1021.500 -1.2 66 -6.8         151.25
2012-Jan-04 06:01:17 1021.500 -1.9 72 -6.3         151.25
2012-Jan-04 07:01:13 1021.800 0.6 61 -6.1         151.25
2012-Jan-04 08:01:17 1022.500 -0.1 61 -6.7         151.25
2012-Jan-04 09:01:14 1022.900 -1.6 67 -6.9         151.25
2012-Jan-04 10:01:14 1023.200 2.9 66 -2.8         151.25
2012-Jan-04 11:01:16 1023.500 11.0 42 -1.5         151.25
2012-Jan-04 12:01:13 1023.300 16.1 28 -2.6         151.25
2012-Jan-04 13:01:12 1022.300 16.4 25 -3.9         151.25
2012-Jan-04 14:01:16 1022.100 16.9 23 -4.6         151.25
2012-Jan-04 15:01:14 1021.200 16.4 23 -5.0         151.25
2012-Jan-04 16:01:17 1021.100 15.6 27 -3.5         151.25
2012-Jan-04 17:01:13 1021.100 13.6 31 -3.3         151.25
2012-Jan-04 18:01:13 1021.600 10.2 38 -3.6         151.25
2012-Jan-04 19:01:13 1022.400 6.0 50 -3.6         151.25
2012-Jan-04 20:01:13 1022.700 4.4 56 -3.7         151.25
2012-Jan-04 21:01:14 1022.700 3.3 61 -3.5         151.25
2012-Jan-04 22:01:14 1023.200 2.9 65 -3.0         151.25
2012-Jan-04 23:01:12 1023.100 1.5 69 -3.6         151.25

Temperatura Máxima:16°    Temperatura Mínima:-1°
Presión Máxima:1023.500 Hpa    Presión Mínima:1021.100 Hpa


Volver